createdAt,value
2023-01-18T00:00:34.341Z,93254.91
2023-01-18T00:03:01.068Z,93254.81
2023-01-18T00:05:27.749Z,93254.66
2023-01-18T00:07:54.435Z,93237.13
2023-01-18T00:10:22.531Z,93241.47
2023-01-18T00:12:49.574Z,93255.56
2023-01-18T00:15:16.438Z,93246.44
2023-01-18T00:17:51.887Z,93242.56
2023-01-18T00:20:23.556Z,93244.81
2023-01-18T00:22:50.706Z,93236.94
2023-01-18T00:25:18.002Z,93244.81
2023-01-18T00:27:46.545Z,93243.81
2023-01-18T00:30:13.461Z,93224.66
2023-01-18T00:32:40.087Z,93215.59
2023-01-18T00:35:08.190Z,93195.47
2023-01-18T00:37:35.314Z,93198.09
2023-01-18T00:40:02.485Z,93191.03
2023-01-18T00:42:47.448Z,93194.03
2023-01-18T00:45:14.152Z,93192.03
2023-01-18T00:47:41.011Z,93200.34
2023-01-18T00:50:07.967Z,93208.00
2023-01-18T00:52:35.016Z,93202.06
2023-01-18T00:55:02.373Z,93194.94
2023-01-18T00:57:29.091Z,93199.81
2023-01-18T00:59:55.762Z,93229.09
2023-01-18T01:02:22.287Z,93239.94
2023-01-18T01:05:07.672Z,93250.63
2023-01-18T01:07:34.188Z,93263.97
2023-01-18T01:10:00.774Z,93271.41
2023-01-18T01:12:46.115Z,93284.69
2023-01-18T01:15:31.140Z,93308.97
2023-01-18T01:18:16.237Z,93319.56
2023-01-18T01:21:01.113Z,93327.78
2023-01-18T01:23:46.510Z,93335.00
2023-01-18T01:26:13.275Z,93342.59
2023-01-18T01:28:41.161Z,93334.91
2023-01-18T01:31:08.781Z,93343.06
2023-01-18T01:33:35.936Z,93357.59
2023-01-18T01:36:05.077Z,93356.81
2023-01-18T01:38:32.099Z,93356.25
2023-01-18T01:41:03.252Z,93365.94
2023-01-18T01:43:50.085Z,93363.66
2023-01-18T01:46:25.990Z,93361.47
2023-01-18T01:49:00.108Z,93362.28
2023-01-18T01:51:26.844Z,93358.22
2023-01-18T01:53:53.591Z,93359.41
2023-01-18T01:59:50.901Z,93356.44
2023-01-18T02:02:17.483Z,93345.75
2023-01-18T02:04:45.417Z,93346.03
2023-01-18T02:07:12.554Z,93338.97
2023-01-18T02:09:40.751Z,93340.63
2023-01-18T02:12:07.281Z,93340.44
2023-01-18T02:14:33.821Z,93337.44
2023-01-18T02:17:28.482Z,93327.78
2023-01-18T02:20:19.585Z,93327.78
2023-01-18T02:23:11.847Z,93341.31
2023-01-18T02:25:50.314Z,93344.22
2023-01-18T02:28:19.252Z,93337.81
2023-01-18T02:30:45.739Z,93328.69
2023-01-18T02:33:37.160Z,93324.59
2023-01-18T02:36:07.221Z,93303.81
2023-01-18T02:38:36.724Z,93295.31
2023-01-18T02:41:03.243Z,93294.69
2023-01-18T02:43:48.384Z,93296.41
2023-01-18T02:46:32.565Z,93296.75
2023-01-18T02:49:01.201Z,93295.88
2023-01-18T02:51:27.688Z,93292.06
2023-01-18T02:53:54.200Z,93290.91
2023-01-18T02:56:26.838Z,93293.44
2023-01-18T02:59:19.479Z,93300.66
2023-01-18T03:02:05.793Z,93314.69
2023-01-18T03:04:49.407Z,93319.38
2023-01-18T03:07:21.567Z,93322.63
2023-01-18T03:09:48.526Z,93324.59
2023-01-18T03:12:15.443Z,93319.09
2023-01-18T03:14:49.403Z,93313.41
2023-01-18T03:17:32.689Z,93313.22
2023-01-18T03:20:03.951Z,93323.06
2023-01-18T03:22:54.011Z,93322.28
2023-01-18T03:25:22.594Z,93316.13
2023-01-18T03:28:10.178Z,93313.66
2023-01-18T03:30:55.612Z,93315.47
2023-01-18T03:33:44.167Z,93317.31
2023-01-18T03:36:13.588Z,93307.06
2023-01-18T03:38:44.284Z,93325.34
2023-01-18T03:41:12.692Z,93344.97
2023-01-18T03:43:40.631Z,93351.38
2023-01-18T03:46:22.285Z,93343.22
2023-01-18T03:48:48.987Z,93338.78
2023-01-18T03:51:21.659Z,93331.03
2023-01-18T03:54:15.727Z,93319.19
2023-01-18T03:56:57.732Z,93322.53
2023-01-18T03:59:27.464Z,93331.31
2023-01-18T04:01:54.090Z,93319.09
2023-01-18T04:04:20.693Z,93332.28
2023-01-18T04:06:48.682Z,93338.34
2023-01-18T04:09:19.653Z,93348.94
2023-01-18T04:11:46.141Z,93357.41
2023-01-18T04:14:12.679Z,93361.66
2023-01-18T04:16:39.194Z,93362.03
2023-01-18T04:19:07.454Z,93361.19
2023-01-18T04:21:34.071Z,93357.88
2023-01-18T04:24:00.767Z,93357.03
2023-01-18T04:26:27.413Z,93377.13
2023-01-18T04:28:56.454Z,93387.78
2023-01-18T04:31:23.118Z,93387.69
2023-01-18T04:33:54.994Z,93386.44
2023-01-18T04:36:22.422Z,93375.75
2023-01-18T04:38:55.283Z,93378.94
2023-01-18T04:41:22.383Z,93369.97
2023-01-18T04:43:49.181Z,93369.06
2023-01-18T04:46:16.062Z,93352.06
2023-01-18T04:48:45.312Z,93351.88
2023-01-18T04:51:16.077Z,93362.19
2023-01-18T04:53:43.932Z,93355.59
2023-01-18T04:56:12.843Z,93351.56
2023-01-18T04:58:41.484Z,93355.97
2023-01-18T05:01:09.190Z,93362.03
2023-01-18T05:03:40.585Z,93370.34
2023-01-18T05:06:08.527Z,93376.56
2023-01-18T05:08:35.218Z,93394.22
2023-01-18T05:11:11.170Z,93399.91
2023-01-18T05:13:40.115Z,93395.75
2023-01-18T05:16:07.429Z,93408.50
2023-01-18T05:18:34.096Z,93410.66
2023-01-18T05:21:02.478Z,93426.34
2023-01-18T05:23:29.204Z,93434.03
2023-01-18T05:25:59.781Z,93436.66
2023-01-18T05:28:27.424Z,93438.19
2023-01-18T05:30:55.654Z,93449.78
2023-01-18T05:33:22.754Z,93457.47
2023-01-18T05:35:50.372Z,93450.13
2023-01-18T05:38:17.114Z,93455.91
2023-01-18T05:40:53.600Z,93465.28
2023-01-18T05:43:25.501Z,93472.97
2023-01-18T05:45:52.208Z,93472.97
2023-01-18T05:48:18.826Z,93479.03
2023-01-18T05:50:47.146Z,93481.41
2023-01-18T05:53:14.600Z,93468.19
2023-01-18T05:55:42.467Z,93455.91
2023-01-18T05:58:11.569Z,93464.88
2023-01-18T06:00:38.102Z,93473.53
2023-01-18T06:03:04.603Z,93477.50
2023-01-18T06:05:31.163Z,93480.13
2023-01-18T06:07:57.675Z,93483.38
2023-01-18T06:10:24.120Z,93492.22
2023-01-18T06:12:50.726Z,93490.19
2023-01-18T06:15:17.329Z,93500.69
2023-01-18T06:17:44.841Z,93497.69
2023-01-18T06:20:12.669Z,93499.84
2023-01-18T06:22:43.020Z,93506.63
2023-01-18T06:25:10.158Z,93512.56
2023-01-18T06:27:37.773Z,93515.19
2023-01-18T06:30:06.314Z,93516.19
2023-01-18T06:32:33.082Z,93507.66
2023-01-18T06:35:01.050Z,93507.47
2023-01-18T06:37:28.736Z,93513.03
2023-01-18T06:39:58.285Z,93522.16
2023-01-18T06:42:24.851Z,93528.56
2023-01-18T06:44:51.409Z,93526.59
2023-01-18T06:47:20.002Z,93534.94
2023-01-18T06:49:48.040Z,93541.34
2023-01-18T06:52:15.067Z,93553.50
2023-01-18T06:54:44.547Z,93559.91
2023-01-18T06:57:12.258Z,93560.06
2023-01-18T06:59:39.152Z,93568.47
2023-01-18T07:02:06.159Z,93569.44
2023-01-18T07:04:35.491Z,93580.59
2023-01-18T07:07:04.791Z,93587.31
2023-01-18T07:09:35.403Z,93585.34
2023-01-18T07:12:04.343Z,93582.19
2023-01-18T07:14:32.007Z,93581.34
2023-01-18T07:16:58.618Z,93585.25
2023-01-18T07:19:28.829Z,93596.63
2023-01-18T07:21:55.368Z,93608.22
2023-01-18T07:24:25.074Z,93614.81
2023-01-18T07:26:51.598Z,93623.16
2023-01-18T07:29:25.724Z,93625.59
2023-01-18T07:31:52.282Z,93630.78
2023-01-18T07:34:19.952Z,93645.63
2023-01-18T07:36:49.238Z,93646.63
2023-01-18T07:39:15.748Z,93642.38
2023-01-18T07:41:42.389Z,93646.56
2023-01-18T07:44:10.377Z,93649.47
2023-01-18T07:46:36.900Z,93650.41
2023-01-18T07:49:05.896Z,93641.19
2023-01-18T07:51:32.989Z,93628.00
2023-01-18T07:53:59.499Z,93629.22
2023-01-18T07:56:26.100Z,93633.47
2023-01-18T07:58:53.303Z,93640.63
2023-01-18T08:01:23.205Z,93641.75
2023-01-18T08:03:50.725Z,93639.84
2023-01-18T08:06:21.243Z,93644.38
2023-01-18T08:08:47.761Z,93640.75
2023-01-18T08:11:14.323Z,93643.38
2023-01-18T08:13:41.902Z,93636.34
2023-01-18T08:16:11.277Z,93640.94
2023-01-18T08:18:39.653Z,93656.06
2023-01-18T08:21:08.299Z,93668.19
2023-01-18T08:23:35.919Z,93679.69
2023-01-18T08:26:04.187Z,93683.97
2023-01-18T08:28:31.028Z,93693.81
2023-01-18T08:31:16.699Z,93709.75
2023-01-18T08:33:47.358Z,93710.13
2023-01-18T08:36:16.803Z,93716.81
2023-01-18T08:38:43.374Z,93720.13
2023-01-18T08:41:11.048Z,93723.56
2023-01-18T08:43:39.920Z,93733.09
2023-01-18T08:46:06.467Z,93743.41
2023-01-18T08:48:37.379Z,93751.63
2023-01-18T08:51:04.160Z,93742.47
2023-01-18T08:53:31.024Z,93740.84
2023-01-18T08:55:57.581Z,93748.72
2023-01-18T08:58:24.248Z,93746.72
2023-01-18T09:00:54.523Z,93756.22
2023-01-18T09:03:21.896Z,93763.78
2023-01-18T09:05:49.325Z,93772.63
2023-01-18T09:08:15.971Z,93782.72
2023-01-18T09:10:42.457Z,93800.28
2023-01-18T09:13:12.413Z,93810.66
2023-01-18T09:15:41.925Z,93820.84
2023-01-18T09:18:11.086Z,93823.25
2023-01-18T09:20:37.655Z,93833.16
2023-01-18T09:23:11.168Z,93839.75
2023-01-18T09:25:37.864Z,93844.84
2023-01-18T09:28:05.133Z,93848.28
2023-01-18T09:30:32.363Z,93850.25
2023-01-18T09:33:01.093Z,93847.34
2023-01-18T09:35:27.993Z,93853.41
2023-01-18T09:37:55.029Z,93863.09
2023-01-18T09:40:23.912Z,93873.84
2023-01-18T09:42:53.172Z,93875.63
2023-01-18T09:45:26.068Z,93879.91
2023-01-18T09:47:57.173Z,93888.09
2023-01-18T09:50:23.924Z,93883.47
2023-01-18T09:52:52.647Z,93887.88
2023-01-18T09:55:25.844Z,93881.81
2023-01-18T09:57:52.325Z,93895.44
2023-01-18T10:00:21.795Z,93895.31
2023-01-18T10:02:52.192Z,93893.06
2023-01-18T10:05:21.627Z,93891.72
2023-01-18T10:08:04.741Z,93890.72
2023-01-18T10:10:34.224Z,93884.91
2023-01-18T10:13:09.707Z,93879.28
2023-01-18T10:15:36.764Z,93879.22
2023-01-18T10:18:03.445Z,93881.63
2023-01-18T10:20:34.028Z,93887.81
2023-01-18T10:23:11.296Z,93896.03
2023-01-18T10:25:41.957Z,93894.28
2023-01-18T10:28:08.494Z,93900.06
2023-01-18T10:30:38.113Z,93909.75
2023-01-18T10:33:14.479Z,93910.22
2023-01-18T10:35:45.338Z,93914.59
2023-01-18T10:38:13.411Z,93928.72
2023-01-18T10:40:40.819Z,93935.50
2023-01-18T10:43:13.832Z,93933.00
2023-01-18T10:45:40.697Z,93942.91
2023-01-18T10:48:28.178Z,93948.78
2023-01-18T10:50:59.651Z,93955.16
2023-01-18T10:53:27.312Z,93958.25
2023-01-18T10:55:55.968Z,93957.91
2023-01-18T10:58:30.637Z,93954.00
2023-01-18T11:01:00.103Z,93956.91
2023-01-18T11:03:27.832Z,93958.03
2023-01-18T11:06:00.760Z,93964.56
2023-01-18T11:08:34.699Z,93968.84
2023-01-18T11:11:19.568Z,93971.22
2023-01-18T11:13:49.419Z,93974.06
2023-01-18T11:16:23.027Z,93981.47
2023-01-18T11:19:00.162Z,93988.69
2023-01-18T11:21:31.631Z,93997.13
2023-01-18T11:23:58.408Z,93993.03
2023-01-18T11:26:28.763Z,93998.22
2023-01-18T11:28:55.328Z,93998.13
2023-01-18T11:31:23.375Z,93998.97
2023-01-18T11:33:51.942Z,93998.25
2023-01-18T11:36:20.851Z,94001.84
2023-01-18T11:38:48.012Z,93989.50
2023-01-18T11:41:15.337Z,93987.59
2023-01-18T11:44:05.257Z,93989.53
2023-01-18T11:46:39.100Z,93972.50
2023-01-18T11:49:31.842Z,93984.19
2023-01-18T11:51:58.432Z,93990.44
2023-01-18T11:54:28.449Z,94004.06
2023-01-18T11:56:58.525Z,94003.06
2023-01-18T11:59:27.757Z,94004.69
2023-01-18T12:01:57.441Z,93999.78
2023-01-18T12:04:39.409Z,93997.50
2023-01-18T12:07:19.040Z,94011.50
2023-01-18T12:09:56.006Z,94009.66
2023-01-18T12:12:25.793Z,94010.84
2023-01-18T12:15:01.337Z,94009.47
2023-01-18T12:17:31.019Z,94009.53
2023-01-18T12:20:03.915Z,94016.31
2023-01-18T12:22:36.530Z,94021.47
2023-01-18T12:25:21.887Z,94030.03
2023-01-18T12:28:00.691Z,94031.81
2023-01-18T12:30:30.083Z,94036.63
2023-01-18T12:33:02.349Z,94032.16
2023-01-18T12:35:44.557Z,94032.47
2023-01-18T12:38:14.007Z,94029.28
2023-01-18T12:40:59.404Z,94028.97
2023-01-18T12:43:28.256Z,94020.34
2023-01-18T12:46:03.268Z,94021.31
2023-01-18T12:48:43.704Z,94029.16
2023-01-18T12:51:14.002Z,94030.19
2023-01-18T12:53:49.436Z,94018.28
2023-01-18T12:56:22.915Z,94007.75
2023-01-18T12:59:10.875Z,94008.19
2023-01-18T13:01:42.980Z,94005.88
2023-01-18T13:04:26.071Z,94008.31
2023-01-18T13:06:57.032Z,94002.97
2023-01-18T13:09:29.855Z,93988.22
2023-01-18T13:11:58.549Z,93998.44
2023-01-18T13:14:34.280Z,93986.28
2023-01-18T13:17:08.193Z,93974.78
2023-01-18T13:19:51.993Z,93980.22
2023-01-18T13:22:24.260Z,93981.38
2023-01-18T13:25:12.391Z,93981.13
2023-01-18T13:27:40.374Z,93997.19
2023-01-18T13:30:16.944Z,94009.28
2023-01-18T13:32:45.474Z,94017.81
2023-01-18T13:35:25.666Z,94035.50
2023-01-18T13:37:57.296Z,94047.25
2023-01-18T13:40:36.847Z,94052.75
2023-01-18T13:43:05.832Z,94067.25
2023-01-18T13:45:33.005Z,94084.16
2023-01-18T13:48:01.821Z,94091.41
2023-01-18T13:50:28.626Z,94108.03
2023-01-18T13:53:13.764Z,94121.06
2023-01-18T13:56:12.410Z,94136.03
2023-01-18T13:58:40.285Z,94129.84
2023-01-18T14:01:08.111Z,94134.78
2023-01-18T14:03:36.511Z,94136.75
2023-01-18T14:06:09.235Z,94141.03
2023-01-18T14:08:37.675Z,94141.22
2023-01-18T14:11:25.184Z,94142.53
2023-01-18T14:13:56.781Z,94150.59
2023-01-18T14:16:29.283Z,94153.22
2023-01-18T14:19:03.253Z,94153.22
2023-01-18T14:21:37.716Z,94151.25
2023-01-18T14:24:14.809Z,94156.31
2023-01-18T14:26:46.464Z,94158.72
2023-01-18T14:29:22.167Z,94168.94
2023-01-18T14:31:53.743Z,94170.94
2023-01-18T14:34:30.159Z,94173.28
2023-01-18T14:36:57.567Z,94180.69
2023-01-18T14:39:24.277Z,94181.66
2023-01-18T14:41:52.744Z,94185.28
2023-01-18T14:44:19.303Z,94188.56
2023-01-18T14:47:13.815Z,94193.16
2023-01-18T14:49:51.935Z,94194.31
2023-01-18T14:52:18.690Z,94196.31
2023-01-18T14:54:54.453Z,94201.06
2023-01-18T14:57:22.253Z,94202.75
2023-01-18T14:59:53.017Z,94202.75
2023-01-18T15:02:22.754Z,94199.78
2023-01-18T15:04:49.693Z,94207.50
2023-01-18T15:07:27.807Z,94201.44
2023-01-18T15:09:54.489Z,94209.97
2023-01-18T15:12:23.574Z,94202.09
2023-01-18T15:15:01.689Z,94206.88
2023-01-18T15:17:28.285Z,94216.25
2023-01-18T15:19:57.934Z,94209.16
2023-01-18T15:22:28.415Z,94224.13
2023-01-18T15:24:56.495Z,94220.19
2023-01-18T15:27:27.611Z,94224.81
2023-01-18T15:29:57.659Z,94229.38
2023-01-18T15:32:29.057Z,94226.94
2023-01-18T15:34:56.756Z,94231.72
2023-01-18T15:37:30.373Z,94222.03
2023-01-18T15:39:57.819Z,94229.25
2023-01-18T15:42:44.833Z,94230.72
2023-01-18T15:45:38.735Z,94230.56
2023-01-18T15:48:27.259Z,94219.06
2023-01-18T15:50:55.194Z,94219.06
2023-01-18T15:53:34.378Z,94217.91
2023-01-18T15:56:08.544Z,94219.91
2023-01-18T15:58:36.958Z,94221.06
2023-01-18T16:01:22.173Z,94218.59
2023-01-18T16:03:48.796Z,94211.03
2023-01-18T16:06:19.694Z,94207.25
2023-01-18T16:09:11.847Z,94206.78
2023-01-18T16:11:39.773Z,94212.16
2023-01-18T16:14:20.280Z,94214.47
2023-01-18T16:16:47.739Z,94226.31
2023-01-18T16:19:32.094Z,94227.47
2023-01-18T16:22:01.199Z,94234.50
2023-01-18T16:24:33.762Z,94235.50
2023-01-18T16:27:10.413Z,94241.56
2023-01-18T16:29:52.946Z,94252.25
2023-01-18T16:32:27.089Z,94255.19
2023-01-18T16:34:54.634Z,94258.47
2023-01-18T16:37:21.364Z,94264.06
2023-01-18T16:39:50.731Z,94258.97
2023-01-18T16:42:19.867Z,94270.63
2023-01-18T16:44:48.635Z,94285.91
2023-01-18T16:47:17.592Z,94268.81
2023-01-18T16:49:45.882Z,94285.56
2023-01-18T16:52:16.296Z,94279.50
2023-01-18T16:54:43.900Z,94290.97
2023-01-18T16:57:24.004Z,94301.31
2023-01-18T16:59:50.845Z,94302.16
2023-01-18T17:02:18.845Z,94306.75
2023-01-18T17:04:46.713Z,94328.25
2023-01-18T17:07:13.717Z,94335.28
2023-01-18T17:09:48.398Z,94328.41
2023-01-18T17:12:18.461Z,94323.31
2023-01-18T17:14:44.995Z,94328.41
2023-01-18T17:17:11.559Z,94330.38
2023-01-18T17:19:38.245Z,94326.94
2023-01-18T17:22:07.209Z,94333.16
2023-01-18T17:24:35.855Z,94325.13
2023-01-18T17:27:02.401Z,94340.06
2023-01-18T17:29:31.337Z,94337.44
2023-01-18T17:31:57.992Z,94339.22
2023-01-18T17:34:28.418Z,94343.50
2023-01-18T17:36:56.735Z,94343.50
2023-01-18T17:39:28.170Z,94343.81
2023-01-18T17:42:03.938Z,94351.53
2023-01-18T17:44:36.819Z,94358.78
2023-01-18T17:47:03.757Z,94354.66
2023-01-18T17:49:32.801Z,94339.88
2023-01-18T17:51:59.370Z,94343.31
2023-01-18T17:54:26.056Z,94345.97
2023-01-18T17:56:56.328Z,94347.13
2023-01-18T17:59:22.893Z,94348.47
2023-01-18T18:01:49.509Z,94354.69
2023-01-18T18:04:19.196Z,94360.72
2023-01-18T18:06:53.663Z,94352.34
2023-01-18T18:09:20.441Z,94365.97
2023-01-18T18:11:47.020Z,94362.47
2023-01-18T18:14:16.641Z,94365.09
2023-01-18T18:16:44.090Z,94376.06
2023-01-18T18:19:14.683Z,94368.53
2023-01-18T18:21:45.968Z,94369.16
2023-01-18T18:24:12.983Z,94366.03
2023-01-18T18:26:39.993Z,94351.94
2023-01-18T18:29:06.657Z,94347.00
2023-01-18T18:31:33.307Z,94360.28
2023-01-18T18:34:02.052Z,94358.66
2023-01-18T18:36:28.735Z,94353.22
2023-01-18T18:38:55.308Z,94367.34
2023-01-18T18:41:22.077Z,94366.53
2023-01-18T18:43:50.001Z,94368.16
2023-01-18T18:46:16.659Z,94374.72
2023-01-18T18:48:43.820Z,94375.34
2023-01-18T18:51:10.464Z,94384.03
2023-01-18T18:53:39.450Z,94382.06
2023-01-18T18:56:09.575Z,94384.53
2023-01-18T18:58:41.533Z,94392.25
2023-01-18T19:01:17.346Z,94395.53
2023-01-18T19:03:44.013Z,94388.63
2023-01-18T19:06:12.555Z,94377.31
2023-01-18T19:08:39.154Z,94377.47
2023-01-18T19:11:05.713Z,94369.59
2023-01-18T19:13:33.397Z,94363.50
2023-01-18T19:16:00.031Z,94362.19
2023-01-18T19:18:26.772Z,94372.50
2023-01-18T19:20:53.559Z,94367.94
2023-01-18T19:23:20.885Z,94366.97
2023-01-18T19:25:48.739Z,94361.72
2023-01-18T19:28:18.996Z,94367.28
2023-01-18T19:30:45.597Z,94366.63
2023-01-18T19:33:14.854Z,94364.28
2023-01-18T19:35:43.000Z,94372.16
2023-01-18T19:38:09.795Z,94382.38
2023-01-18T19:40:37.521Z,94385.63
2023-01-18T19:43:04.197Z,94391.91
2023-01-18T19:45:31.438Z,94396.28
2023-01-18T19:47:59.690Z,94410.22
2023-01-18T19:50:29.005Z,94407.75
2023-01-18T19:52:55.725Z,94404.16
2023-01-18T19:55:22.846Z,94409.72
2023-01-18T19:57:51.448Z,94408.59
2023-01-18T20:00:18.253Z,94400.56
2023-01-18T20:02:44.950Z,94403.03
2023-01-18T20:05:11.524Z,94407.59
2023-01-18T20:07:39.034Z,94402.34
2023-01-18T20:10:09.333Z,94401.84
2023-01-18T20:12:35.927Z,94401.03
2023-01-18T20:15:02.553Z,94403.63
2023-01-18T20:17:29.962Z,94403.34
2023-01-18T20:19:59.079Z,94405.28
2023-01-18T20:22:25.600Z,94397.41
2023-01-18T20:24:52.130Z,94394.63
2023-01-18T20:27:18.811Z,94402.66
2023-01-18T20:29:45.365Z,94407.25
2023-01-18T20:32:17.058Z,94413.31
2023-01-18T20:34:47.278Z,94414.13
2023-01-18T20:37:14.963Z,94420.22
2023-01-18T20:39:41.773Z,94417.59
2023-01-18T20:42:08.427Z,94421.41
2023-01-18T20:44:35.059Z,94422.25
2023-01-18T20:47:01.798Z,94426.31
2023-01-18T20:49:43.449Z,94425.97
2023-01-18T20:52:10.043Z,94426.28
2023-01-18T20:54:36.818Z,94420.38
2023-01-18T20:57:04.074Z,94421.34
2023-01-18T20:59:30.567Z,94418.06
2023-01-18T21:01:57.500Z,94421.69
2023-01-18T21:04:24.763Z,94422.31
2023-01-18T21:06:51.295Z,94433.13
2023-01-18T21:09:18.051Z,94428.75
2023-01-18T21:11:44.628Z,94429.88
2023-01-18T21:14:11.766Z,94419.69
2023-01-18T21:16:38.312Z,94427.72
2023-01-18T21:19:04.915Z,94435.75
2023-01-18T21:21:31.985Z,94430.84
2023-01-18T21:23:59.373Z,94428.88
2023-01-18T21:26:26.256Z,94433.13
2023-01-18T21:28:52.968Z,94439.03
2023-01-18T21:31:19.635Z,94434.84
2023-01-18T21:33:46.249Z,94446.81
2023-01-18T21:36:14.197Z,94451.69
2023-01-18T21:38:40.758Z,94454.28
2023-01-18T21:41:26.075Z,94452.09
2023-01-18T21:44:12.576Z,94459.00
2023-01-18T21:46:44.189Z,94461.03
2023-01-18T21:49:42.848Z,94452.31
2023-01-18T21:52:35.914Z,94465.38
2023-01-18T21:55:02.445Z,94478.66
2023-01-18T21:57:29.001Z,94470.47
2023-01-18T21:59:55.532Z,94483.56
2023-01-18T22:02:22.643Z,94471.97
2023-01-18T22:05:00.882Z,94471.16
2023-01-18T22:07:28.076Z,94475.44
2023-01-18T22:10:03.939Z,94470.66
2023-01-18T22:12:33.436Z,94478.38
2023-01-18T22:15:02.222Z,94485.22
2023-01-18T22:17:29.019Z,94485.91
2023-01-18T22:19:55.730Z,94484.25
2023-01-18T22:22:22.288Z,94499.16
2023-01-18T22:24:48.840Z,94499.03
2023-01-18T22:27:15.369Z,94490.31
2023-01-18T22:29:42.257Z,94493.31
2023-01-18T22:32:08.850Z,94497.78
2023-01-18T22:34:35.427Z,94501.06
2023-01-18T22:37:03.353Z,94516.09
2023-01-18T22:39:29.975Z,94521.84
2023-01-18T22:41:56.556Z,94514.31
2023-01-18T22:44:23.198Z,94524.63
2023-01-18T22:46:49.791Z,94524.31
2023-01-18T22:49:16.412Z,94520.34
2023-01-18T22:51:43.041Z,94514.47
2023-01-18T22:54:09.589Z,94501.34
2023-01-18T22:56:36.125Z,94507.25
2023-01-18T22:59:02.756Z,94508.28
2023-01-18T23:01:30.959Z,94524.03
2023-01-18T23:04:00.536Z,94525.75
2023-01-18T23:06:28.236Z,94515.44
2023-01-18T23:08:55.854Z,94512.81
2023-01-18T23:11:23.990Z,94523.97
2023-01-18T23:14:10.750Z,94524.31
2023-01-18T23:16:56.228Z,94531.16
2023-01-18T23:19:24.247Z,94534.47
2023-01-18T23:21:52.048Z,94535.66
2023-01-18T23:24:19.159Z,94530.56
2023-01-18T23:26:45.819Z,94527.94
2023-01-18T23:29:12.449Z,94540.75
2023-01-18T23:31:39.034Z,94555.69
2023-01-18T23:34:05.817Z,94546.75
2023-01-18T23:36:32.436Z,94538.78
2023-01-18T23:39:17.513Z,94543.97
2023-01-18T23:42:02.395Z,94543.06
2023-01-18T23:44:47.308Z,94535.28
2023-01-18T23:47:32.272Z,94538.75
2023-01-18T23:50:17.315Z,94535.56
2023-01-18T23:53:02.510Z,94540.59
2023-01-18T23:55:29.084Z,94533.19
2023-01-18T23:57:55.675Z,94539.41
